Time;durP1;ratioP1;P1;durP2;ratioP2;P2;SDS_P1;SDS_P2;PMS_P1;PMS_P2;Temp;Humidity;BMP_temperature;BMP_pressure;BME280_temperature;BME280_humidity;BME280_pressure;Samples;Min_cycle;Max_cycle;Signal;HPM_P1;HPM_P2
2023/08/21 00:00:12;;;;;;;5.73;2.53;;;19.80;99.90;;;;;;5025346;28;20476;-82
2023/08/21 00:02:39;;;;;;;4.97;2.00;;;19.80;99.90;;;;;;5022932;28;20867;-83
2023/08/21 00:05:07;;;;;;;3.80;2.17;;;19.80;99.90;;;;;;5042192;28;20448;-80
2023/08/21 00:07:33;;;;;;;2.87;1.90;;;19.90;99.90;;;;;;5042747;28;20491;-82
2023/08/21 00:10:01;;;;;;;3.80;1.87;;;19.90;99.90;;;;;;5043569;28;20455;-82
2023/08/21 00:12:28;;;;;;;4.70;2.00;;;19.80;99.90;;;;;;5042013;28;20463;-83
2023/08/21 00:14:55;;;;;;;8.40;3.10;;;19.80;99.90;;;;;;5042534;28;20453;-83
2023/08/21 00:17:22;;;;;;;3.10;2.00;;;19.80;99.90;;;;;;5041709;28;20524;-82
2023/08/21 00:19:49;;;;;;;5.83;2.20;;;19.80;99.90;;;;;;5042177;28;20455;-84
2023/08/21 00:22:15;;;;;;;3.83;1.60;;;19.80;99.90;;;;;;5042930;28;20467;-82
2023/08/21 00:24:42;;;;;;;5.33;1.87;;;19.80;99.90;;;;;;5042836;28;20964;-82
2023/08/21 00:27:10;;;;;;;4.20;2.10;;;19.80;99.90;;;;;;5042231;28;20472;-82
2023/08/21 00:29:37;;;;;;;3.97;1.70;;;19.80;99.90;;;;;;5041858;28;20455;-82
2023/08/21 00:32:06;;;;;;;7.90;2.40;;;19.80;99.90;;;;;;5042634;28;20463;-82
2023/08/21 00:34:33;;;;;;;4.80;1.93;;;19.70;99.90;;;;;;5042896;28;20527;-82
2023/08/21 00:37:00;;;;;;;4.43;1.73;;;19.70;99.90;;;;;;5041802;28;20547;-82
2023/08/21 00:39:26;;;;;;;4.20;2.40;;;19.70;99.90;;;;;;5042892;28;20453;-81
2023/08/21 00:41:53;;;;;;;4.80;2.00;;;19.70;99.90;;;;;;5042828;28;20449;-83
2023/08/21 00:44:21;;;;;;;4.40;1.97;;;19.70;99.90;;;;;;5042117;28;20453;-82
2023/08/21 00:46:48;;;;;;;2.97;1.87;;;19.70;99.90;;;;;;5041930;28;20482;-82
2023/08/21 00:49:15;;;;;;;3.90;2.37;;;19.70;99.90;;;;;;5042983;28;20488;-83
2023/08/21 00:51:42;;;;;;;5.00;2.13;;;19.70;99.90;;;;;;5042591;28;20812;-81
2023/08/21 00:54:09;;;;;;;4.30;2.00;;;19.70;99.90;;;;;;5043002;28;20484;-82
2023/08/21 00:56:36;;;;;;;2.90;1.80;;;19.60;99.90;;;;;;5042963;28;20465;-83
2023/08/21 00:59:03;;;;;;;2.97;1.80;;;19.60;99.90;;;;;;5043140;28;20830;-82
2023/08/21 01:01:32;;;;;;;5.07;1.97;;;19.50;99.90;;;;;;5042897;28;20980;-82
2023/08/21 01:03:59;;;;;;;7.80;1.83;;;19.50;99.90;;;;;;5043316;28;20520;-83
2023/08/21 01:06:25;;;;;;;3.93;1.93;;;19.50;99.90;;;;;;5043188;28;21052;-82
2023/08/21 01:08:58;;;;;;;3.17;2.03;;;19.50;99.90;;;;;;5040903;28;20575;-82
2023/08/21 01:11:32;;;;;;;3.60;1.97;;;19.50;99.90;;;;;;5035268;28;20491;-81
2023/08/21 01:14:07;;;;;;;4.87;1.53;;;19.50;99.90;;;;;;5034605;28;20456;-82
2023/08/21 01:16:36;;;;;;;5.03;2.33;;;19.50;99.90;;;;;;5039881;28;20483;-82
2023/08/21 01:19:08;;;;;;;5.33;1.63;;;19.40;99.90;;;;;;5040420;28;20827;-82
2023/08/21 01:21:35;;;;;;;7.53;2.40;;;19.40;99.90;;;;;;5040047;28;20445;-82
2023/08/21 01:24:04;;;;;;;5.23;1.90;;;19.40;99.90;;;;;;5037856;28;20488;-82
2023/08/21 01:26:31;;;;;;;3.47;1.87;;;19.40;99.90;;;;;;5036197;28;20433;-82
2023/08/21 01:28:57;;;;;;;4.07;1.70;;;19.40;99.90;;;;;;5035759;28;20488;-82
2023/08/21 01:31:29;;;;;;;5.10;1.97;;;19.40;99.90;;;;;;5036166;28;20868;-82
2023/08/21 01:34:02;;;;;;;4.90;2.23;;;19.40;99.90;;;;;;5036055;28;20516;-82
2023/08/21 01:36:29;;;;;;;3.80;2.20;;;19.30;99.90;;;;;;5036463;28;21019;-82
2023/08/21 01:38:55;;;;;;;4.07;1.80;;;19.30;99.90;;;;;;5071803;22;20499;-84
2023/08/21 01:41:25;;;;;;;3.80;1.83;;;19.30;99.90;;;;;;5047924;28;20563;-82
2023/08/21 01:43:52;;;;;;;4.50;1.93;;;19.30;99.90;;;;;;5047865;28;20670;-83
2023/08/21 01:46:19;;;;;;;4.30;1.83;;;19.30;99.90;;;;;;5056145;28;20544;-83
2023/08/21 01:48:46;;;;;;;4.13;1.50;;;19.30;99.90;;;;;;5049014;28;20527;-83
2023/08/21 01:51:13;;;;;;;2.53;1.60;;;19.20;99.90;;;;;;5055732;28;20448;-83
2023/08/21 01:53:39;;;;;;;3.77;1.77;;;19.20;99.90;;;;;;5054732;28;20851;-84
2023/08/21 01:56:06;;;;;;;6.03;1.83;;;19.20;99.90;;;;;;5056107;28;20444;-84
2023/08/21 01:58:34;;;;;;;3.77;1.50;;;19.20;99.90;;;;;;5053981;28;20460;-84
2023/08/21 02:01:01;;;;;;;4.97;1.90;;;19.20;99.90;;;;;;5055004;28;20447;-84
2023/08/21 02:03:30;;;;;;;4.20;2.10;;;19.20;99.90;;;;;;5049353;28;20461;-83
2023/08/21 02:05:58;;;;;;;2.80;1.80;;;19.10;99.90;;;;;;5056418;28;20911;-84
2023/08/21 02:08:31;;;;;;;3.60;1.80;;;19.10;99.90;;;;;;5056016;28;20484;-84
2023/08/21 02:10:58;;;;;;;5.60;1.80;;;19.10;99.90;;;;;;5056236;28;20463;-84
2023/08/21 02:13:24;;;;;;;2.77;2.00;;;19.10;99.90;;;;;;5056480;28;20456;-83
2023/08/21 02:15:53;;;;;;;3.50;1.83;;;19.10;99.90;;;;;;5056904;28;20452;-83
2023/08/21 02:18:20;;;;;;;1.97;1.20;;;19.10;99.90;;;;;;5057023;28;20490;-84
2023/08/21 02:20:48;;;;;;;3.57;2.07;;;19.10;99.90;;;;;;5057857;28;20543;-84
2023/08/21 02:23:15;;;;;;;3.77;1.50;;;19.10;99.90;;;;;;5054586;28;20877;-84
2023/08/21 02:25:42;;;;;;;3.97;2.00;;;19.10;99.90;;;;;;5041802;28;20453;-84
2023/08/21 02:28:09;;;;;;;5.10;1.80;;;19.00;99.90;;;;;;5037930;28;20893;-84
2023/08/21 02:30:36;;;;;;;3.77;1.50;;;19.10;99.90;;;;;;5038107;28;20463;-84
2023/08/21 02:33:04;;;;;;;5.40;1.40;;;19.00;99.90;;;;;;5041478;28;20468;-84
2023/08/21 02:35:31;;;;;;;2.23;1.50;;;19.00;99.90;;;;;;5073248;28;20451;-82
2023/08/21 02:37:58;;;;;;;2.97;1.20;;;19.00;99.90;;;;;;5073812;28;20486;-83
2023/08/21 02:40:25;;;;;;;4.07;1.53;;;19.00;99.90;;;;;;5065650;28;20448;-83
2023/08/21 02:42:52;;;;;;;3.00;1.70;;;19.00;99.90;;;;;;5037491;28;20873;-83
2023/08/21 02:45:19;;;;;;;3.83;1.50;;;18.90;99.90;;;;;;5054121;28;20452;-84
2023/08/21 02:47:46;;;;;;;4.90;1.50;;;18.90;99.90;;;;;;5054376;28;20468;-83
2023/08/21 02:50:14;;;;;;;2.27;1.40;;;18.90;99.90;;;;;;5045585;28;20456;-84
2023/08/21 02:52:41;;;;;;;3.30;1.70;;;18.90;99.90;;;;;;5054287;28;20526;-83
2023/08/21 02:55:08;;;;;;;3.90;1.83;;;18.80;99.90;;;;;;5054634;28;20459;-84
2023/08/21 02:57:35;;;;;;;3.53;1.53;;;18.80;99.90;;;;;;5054486;28;20499;-84
2023/08/21 03:00:03;;;;;;;2.97;1.50;;;18.90;99.90;;;;;;5053238;28;20455;-84
2023/08/21 03:02:29;;;;;;;3.03;2.03;;;18.90;99.90;;;;;;5054821;28;20456;-84
2023/08/21 03:04:56;;;;;;;4.20;1.80;;;18.80;99.90;;;;;;5055198;28;20447;-83
2023/08/21 03:07:24;;;;;;;3.53;1.63;;;18.90;99.90;;;;;;5054299;28;20992;-84
2023/08/21 03:09:51;;;;;;;3.43;1.60;;;18.90;99.90;;;;;;5054841;28;20498;-83
2023/08/21 03:12:18;;;;;;;2.50;1.40;;;18.90;99.90;;;;;;5035834;28;20965;-84
2023/08/21 03:14:46;;;;;;;6.13;2.33;;;18.90;99.90;;;;;;5038033;28;20464;-84
2023/08/21 03:17:13;;;;;;;4.03;1.73;;;18.90;99.90;;;;;;5055616;28;20450;-84
2023/08/21 03:19:40;;;;;;;3.20;1.97;;;18.90;99.90;;;;;;5042821;28;20441;-84
2023/08/21 03:22:06;;;;;;;3.97;1.80;;;18.90;99.90;;;;;;5054937;28;20452;-84
2023/08/21 03:24:35;;;;;;;3.23;1.70;;;18.80;99.90;;;;;;5056689;28;20460;-83
2023/08/21 03:27:02;;;;;;;6.10;2.47;;;18.80;99.90;;;;;;5056509;28;20454;-83
2023/08/21 03:29:29;;;;;;;3.50;1.40;;;18.80;99.90;;;;;;5058275;28;20491;-84
2023/08/21 03:31:56;;;;;;;3.97;1.80;;;18.80;99.90;;;;;;5044996;28;20991;-83
2023/08/21 03:34:23;;;;;;;3.47;1.13;;;18.80;99.90;;;;;;5036275;28;20948;-83
2023/08/21 03:36:49;;;;;;;3.60;1.53;;;18.80;99.90;;;;;;5052229;28;21108;-83
2023/08/21 03:39:16;;;;;;;2.93;1.73;;;18.80;99.90;;;;;;5052130;28;20470;-83
2023/08/21 03:41:44;;;;;;;3.67;1.87;;;18.70;99.90;;;;;;5050882;28;20464;-83
2023/08/21 03:44:11;;;;;;;2.47;1.90;;;18.70;99.90;;;;;;5044211;28;20443;-83
2023/08/21 03:46:38;;;;;;;2.73;1.87;;;18.70;99.90;;;;;;5050572;28;20458;-83
2023/08/21 03:49:05;;;;;;;2.93;1.60;;;18.70;99.90;;;;;;5052137;28;20487;-82
2023/08/21 03:51:32;;;;;;;4.23;2.07;;;18.70;99.90;;;;;;5041993;28;20457;-82
2023/08/21 03:53:58;;;;;;;4.60;1.90;;;18.70;99.90;;;;;;5050306;28;20982;-84
2023/08/21 03:56:25;;;;;;;4.50;1.77;;;18.70;99.90;;;;;;5051807;28;20960;-83
2023/08/21 03:58:53;;;;;;;4.67;1.87;;;18.60;99.90;;;;;;5052395;28;20468;-83
2023/08/21 04:01:20;;;;;;;3.60;2.13;;;18.60;99.90;;;;;;5050587;28;20448;-83
2023/08/21 04:03:47;;;;;;;2.93;1.83;;;18.60;99.90;;;;;;5052039;28;20964;-84
2023/08/21 04:06:14;;;;;;;3.90;2.10;;;18.60;99.90;;;;;;5051059;28;20933;-83
2023/08/21 04:08:41;;;;;;;4.60;2.00;;;18.50;99.90;;;;;;5051347;28;20573;-82
2023/08/21 04:11:07;;;;;;;4.60;1.97;;;18.50;99.90;;;;;;5039847;28;20460;-83
2023/08/21 04:13:34;;;;;;;3.00;1.97;;;18.50;99.90;;;;;;5032414;28;20455;-82
2023/08/21 04:16:02;;;;;;;3.47;2.10;;;18.50;99.90;;;;;;5033041;28;20482;-82
2023/08/21 04:18:29;;;;;;;3.87;2.23;;;18.50;99.90;;;;;;5032321;28;20560;-82
2023/08/21 04:20:56;;;;;;;4.07;1.90;;;18.50;99.90;;;;;;5037666;28;20474;-82
2023/08/21 04:23:23;;;;;;;7.03;2.57;;;18.50;99.90;;;;;;5043715;28;20462;-82
2023/08/21 04:25:49;;;;;;;2.30;2.00;;;18.50;99.90;;;;;;5052441;28;20459;-82
2023/08/21 04:28:16;;;;;;;5.10;2.50;;;18.40;99.90;;;;;;5055517;28;20490;-81
2023/08/21 04:30:43;;;;;;;4.00;2.50;;;18.50;99.90;;;;;;5055107;28;20448;-82
2023/08/21 04:33:11;;;;;;;6.60;2.20;;;18.50;99.90;;;;;;5056183;28;20442;-82
2023/08/21 04:35:39;;;;;;;3.70;2.20;;;18.50;99.90;;;;;;5055695;28;20466;-82
2023/08/21 04:38:07;;;;;;;7.97;2.53;;;18.50;99.90;;;;;;5055944;28;20483;-83
2023/08/21 04:40:33;;;;;;;5.90;2.30;;;18.50;99.90;;;;;;5052123;28;20535;-82
2023/08/21 04:43:00;;;;;;;3.13;1.87;;;18.50;99.90;;;;;;5036331;28;20458;-83
2023/08/21 04:45:27;;;;;;;3.90;2.40;;;18.50;99.90;;;;;;5036192;28;20449;-81
2023/08/21 04:47:54;;;;;;;2.93;2.27;;;18.50;99.90;;;;;;5036230;28;20476;-81
2023/08/21 04:50:22;;;;;;;3.93;2.10;;;18.60;99.90;;;;;;5035966;28;20484;-82
2023/08/21 04:52:50;;;;;;;6.83;3.13;;;18.60;99.90;;;;;;5039859;28;20462;-83
2023/08/21 04:55:17;;;;;;;4.80;2.10;;;18.70;99.90;;;;;;5055784;28;20458;-81
2023/08/21 04:57:43;;;;;;;4.03;2.27;;;18.70;99.90;;;;;;5050910;28;21149;-84
2023/08/21 05:00:11;;;;;;;3.90;2.33;;;18.70;99.90;;;;;;5041954;28;20539;-81
2023/08/21 05:02:37;;;;;;;5.00;2.43;;;18.70;99.90;;;;;;5053599;28;20490;-83
2023/08/21 05:05:05;;;;;;;4.83;2.10;;;18.70;99.90;;;;;;5057878;28;20544;-81
2023/08/21 05:07:35;;;;;;;5.33;2.80;;;18.80;99.90;;;;;;5058001;28;20525;-81
2023/08/21 05:10:02;;;;;;;3.50;2.47;;;18.80;99.90;;;;;;5056979;28;20494;-81
2023/08/21 05:12:29;;;;;;;3.80;2.50;;;18.80;99.90;;;;;;5051774;28;21027;-82
2023/08/21 05:15:02;;;;;;;5.23;2.90;;;18.90;99.90;;;;;;5042138;28;20452;-84
2023/08/21 05:17:31;;;;;;;3.70;2.53;;;18.90;99.90;;;;;;5042816;28;21023;-79
2023/08/21 05:19:58;;;;;;;4.60;2.30;;;18.90;99.90;;;;;;5049092;28;20448;-83
2023/08/21 05:22:25;;;;;;;3.87;2.70;;;18.90;99.90;;;;;;5055165;28;20840;-83
2023/08/21 05:24:53;;;;;;;5.47;2.60;;;18.90;99.90;;;;;;5054956;28;20542;-82
2023/08/21 05:27:20;;;;;;;4.67;3.00;;;19.00;99.90;;;;;;5046745;28;20521;-83
2023/08/21 05:29:49;;;;;;;4.90;2.73;;;19.00;99.90;;;;;;5036892;28;20495;-81
2023/08/21 05:32:16;;;;;;;4.20;2.53;;;19.00;99.90;;;;;;5047240;28;20465;-83
2023/08/21 05:34:42;;;;;;;4.63;2.80;;;19.00;99.90;;;;;;5055501;28;20515;-82
2023/08/21 05:37:09;;;;;;;4.57;2.27;;;19.10;99.90;;;;;;5068756;28;20531;-83
2023/08/21 05:39:36;;;;;;;5.73;2.83;;;19.10;99.90;;;;;;5055339;28;20444;-81
2023/08/21 05:42:05;;;;;;;4.70;2.47;;;19.10;99.90;;;;;;5055176;28;20501;-83
2023/08/21 05:44:32;;;;;;;3.93;2.63;;;19.10;99.90;;;;;;5054284;28;20448;-82
2023/08/21 05:46:58;;;;;;;4.40;2.57;;;19.20;99.90;;;;;;5048424;28;20449;-83
2023/08/21 05:49:25;;;;;;;5.93;3.30;;;19.20;99.90;;;;;;5045872;28;20522;-84
2023/08/21 05:51:53;;;;;;;6.10;2.87;;;19.20;99.90;;;;;;5056029;28;20466;-84
2023/08/21 05:54:20;;;;;;;4.90;2.30;;;19.30;99.90;;;;;;5057226;28;20455;-85
2023/08/21 05:56:47;;;;;;;5.93;3.03;;;19.30;99.90;;;;;;5057552;28;20476;-84
2023/08/21 05:59:28;;;;;;;4.57;2.63;;;19.40;99.90;;;;;;5053035;28;20465;-83
2023/08/21 06:01:55;;;;;;;4.90;3.10;;;19.40;99.90;;;;;;5042653;28;20456;-84
2023/08/21 06:04:22;;;;;;;5.30;2.40;;;19.40;99.90;;;;;;5052137;28;20474;-84
2023/08/21 06:06:49;;;;;;;5.20;2.63;;;19.50;99.90;;;;;;5057117;28;20921;-82
2023/08/21 06:09:17;;;;;;;4.83;2.90;;;19.60;99.90;;;;;;5072058;28;20554;-83
2023/08/21 06:11:48;;;;;;;3.90;2.80;;;19.60;99.90;;;;;;5058349;28;20463;-81
2023/08/21 06:14:30;;;;;;;;;;;;;;;;;;;;;
2023/08/21 06:17:00;;;;;;;4.77;2.43;;;19.80;99.90;;;;;;5054854;28;20959;-80
2023/08/21 06:19:27;;;;;;;3.93;2.37;;;19.80;99.90;;;;;;5055818;28;20496;-82
2023/08/21 06:21:55;;;;;;;4.37;2.70;;;19.90;99.90;;;;;;5036949;28;20468;-80
2023/08/21 06:24:22;;;;;;;4.63;2.90;;;19.90;99.90;;;;;;5046967;28;20452;-82
2023/08/21 06:26:49;;;;;;;4.60;2.33;;;20.00;99.90;;;;;;5049601;28;21028;-85
2023/08/21 06:29:17;;;;;;;6.00;2.70;;;20.00;99.90;;;;;;5052713;28;21209;-82
2023/08/21 06:31:44;;;;;;;4.33;2.23;;;20.10;99.90;;;;;;5037053;28;20844;-85
2023/08/21 06:34:11;;;;;;;3.80;2.40;;;20.10;99.90;;;;;;5037090;28;20536;-85
2023/08/21 06:36:38;;;;;;;3.90;2.07;;;20.10;99.90;;;;;;5062765;28;20447;-84
2023/08/21 06:39:04;;;;;;;3.77;2.37;;;20.10;99.90;;;;;;5036648;28;20491;-84
2023/08/21 06:41:31;;;;;;;5.20;2.13;;;20.20;99.90;;;;;;5041663;28;20638;-84
2023/08/21 06:43:59;;;;;;;5.80;1.80;;;20.20;99.90;;;;;;5057750;28;20458;-84
2023/08/21 06:46:27;;;;;;;4.70;2.13;;;20.30;99.90;;;;;;5056326;28;20843;-83
2023/08/21 06:48:54;;;;;;;3.57;2.03;;;20.30;99.90;;;;;;5057983;28;20479;-85
2023/08/21 06:51:21;;;;;;;3.00;1.50;;;20.30;99.90;;;;;;5055393;28;20490;-84
2023/08/21 06:53:47;;;;;;;3.60;1.90;;;20.40;99.90;;;;;;5056872;28;20527;-84
2023/08/21 06:56:14;;;;;;;3.33;1.63;;;20.40;99.90;;;;;;5057839;28;20456;-83
2023/08/21 06:58:41;;;;;;;3.83;1.73;;;20.50;99.90;;;;;;5055747;28;20822;-81
2023/08/21 07:01:08;;;;;;;4.33;1.83;;;20.60;99.90;;;;;;5054595;28;20448;-84
2023/08/21 07:03:37;;;;;;;3.63;1.77;;;20.70;99.90;;;;;;5036453;28;20534;-86
2023/08/21 07:06:04;;;;;;;3.73;1.87;;;20.80;99.90;;;;;;5036315;28;20820;-83
2023/08/21 07:08:34;;;;;;;7.47;1.87;;;20.90;99.90;;;;;;5036007;28;20460;-84
2023/08/21 07:11:03;;;;;;;4.40;1.90;;;21.00;99.90;;;;;;5056854;28;20491;-84
2023/08/21 07:13:30;;;;;;;2.83;1.90;;;21.10;99.90;;;;;;5056785;28;20452;-83
2023/08/21 07:15:57;;;;;;;4.63;1.50;;;21.20;99.90;;;;;;5056275;28;20531;-85
2023/08/21 07:18:24;;;;;;;4.13;2.03;;;21.30;99.90;;;;;;5055962;28;20464;-85
2023/08/21 07:20:54;;;;;;;4.90;1.60;;;21.40;99.90;;;;;;5055128;28;20543;-83
2023/08/21 07:23:21;;;;;;;4.43;2.03;;;21.50;99.90;;;;;;5056192;28;20448;-84
2023/08/21 07:25:48;;;;;;;5.03;1.80;;;21.50;58.10;;;;;;5046858;28;20550;-84
2023/08/21 07:28:14;;;;;;;6.43;2.33;;;21.50;74.80;;;;;;5045894;28;20554;-85
2023/08/21 07:30:41;;;;;;;4.03;1.80;;;21.60;99.90;;;;;;5047824;28;20492;-82
2023/08/21 07:33:08;;;;;;;4.07;1.60;;;21.60;65.90;;;;;;5049983;28;20463;-81
2023/08/21 07:35:35;;;;;;;2.37;1.80;;;21.60;19.80;;;;;;5052422;28;20888;-84
2023/08/21 07:38:04;;;;;;;3.33;2.00;;;21.70;99.90;;;;;;5069581;22;20499;-81
2023/08/21 07:40:31;;;;;;;7.63;2.30;;;21.70;99.90;;;;;;5046493;28;20524;-79
2023/08/21 07:42:58;;;;;;;5.73;2.83;;;21.80;99.90;;;;;;5051788;28;20444;-79
2023/08/21 07:45:25;;;;;;;4.23;2.40;;;21.80;99.90;;;;;;5052768;28;20974;-80
2023/08/21 07:47:51;;;;;;;10.87;2.37;;;21.80;99.20;;;;;;5053484;28;20450;-81
2023/08/21 07:50:18;;;;;;;5.60;2.50;;;21.80;1.00;;;;;;5056501;28;20510;-81
2023/08/21 07:52:45;;;;;;;6.57;2.20;;;21.80;15.00;;;;;;5055274;28;20530;-81
2023/08/21 07:55:13;;;;;;;5.03;2.10;;;21.80;25.30;;;;;;5066946;28;20561;-80
2023/08/21 07:57:40;;;;;;;5.03;2.33;;;21.90;18.90;;;;;;5054101;28;20444;-79
2023/08/21 08:00:09;;;;;;;5.20;2.13;;;21.90;9.50;;;;;;5052448;28;20458;-82
2023/08/21 08:02:36;;;;;;;5.83;2.20;;;22.00;22.80;;;;;;5058290;28;20491;-81
2023/08/21 08:05:03;;;;;;;2.67;1.90;;;22.00;7.90;;;;;;5058569;28;20883;-79
2023/08/21 08:07:30;;;;;;;5.30;2.47;;;22.00;2.80;;;;;;5054061;28;20448;-79
2023/08/21 08:09:57;;;;;;;3.77;1.97;;;22.10;25.90;;;;;;5054685;28;20506;-80
2023/08/21 08:12:25;;;;;;;5.57;2.17;;;22.10;15.00;;;;;;5068943;28;20453;-81
2023/08/21 08:14:52;;;;;;;4.47;1.87;;;22.10;21.70;;;;;;5067250;28;20450;-80
2023/08/21 08:17:19;;;;;;;4.43;2.03;;;22.10;2.60;;;;;;5062016;28;20533;-80
2023/08/21 08:19:46;;;;;;;7.50;2.47;;;22.20;7.70;;;;;;5073395;28;20581;-83
2023/08/21 08:22:12;;;;;;;5.73;1.97;;;22.30;1.00;;;;;;5054992;28;20444;-80
2023/08/21 08:24:39;;;;;;;6.33;1.97;;;22.40;1.00;;;;;;5061523;28;20551;-81
2023/08/21 08:27:06;;;;;;;4.70;1.90;;;22.40;1.00;;;;;;5068961;28;20526;-82
2023/08/21 08:29:35;;;;;;;3.80;1.53;;;22.50;1.00;;;;;;5068223;28;21047;-80
2023/08/21 08:32:02;;;;;;;3.20;1.47;;;22.60;1.00;;;;;;5063632;28;20516;-82
2023/08/21 08:34:28;;;;;;;3.70;1.63;;;22.70;1.00;;;;;;5063802;28;20550;-83
2023/08/21 08:36:55;;;;;;;4.37;1.83;;;22.70;1.00;;;;;;5062524;28;20474;-82
2023/08/21 08:39:22;;;;;;;3.10;1.80;;;22.80;1.00;;;;;;5066027;28;20466;-81
2023/08/21 08:41:55;;;;;;;4.10;2.13;;;22.80;1.00;;;;;;5069293;28;20508;-84
2023/08/21 08:44:24;;;;;;;3.60;1.73;;;22.90;1.00;;;;;;5081970;28;20507;-82
2023/08/21 08:46:53;;;;;;;3.30;1.50;;;23.00;1.00;;;;;;5069067;28;20504;-83
2023/08/21 08:49:21;;;;;;;3.97;1.70;;;23.10;1.00;;;;;;5061564;28;20479;-81
2023/08/21 08:51:51;;;;;;;6.60;1.93;;;23.20;1.00;;;;;;5058906;28;20579;-81
2023/08/21 08:54:19;;;;;;;3.73;1.90;;;23.30;1.00;;;;;;5060369;28;20448;-81
2023/08/21 08:56:45;;;;;;;3.97;2.30;;;23.30;1.00;;;;;;5061607;28;20447;-81
2023/08/21 08:59:14;;;;;;;3.50;2.03;;;23.40;1.00;;;;;;5049566;28;20562;-81
2023/08/21 09:01:41;;;;;;;5.57;2.50;;;23.60;1.00;;;;;;5054324;28;20519;-81
2023/08/21 09:04:09;;;;;;;5.27;2.13;;;23.70;99.90;;;;;;5061973;28;20467;-79
2023/08/21 09:06:36;;;;;;;3.90;2.10;;;23.90;99.90;;;;;;5057918;28;20523;-82
2023/08/21 09:09:03;;;;;;;4.53;2.33;;;24.00;99.90;;;;;;5061269;28;20559;-80
2023/08/21 09:11:30;;;;;;;5.97;2.77;;;24.10;99.90;;;;;;5053331;28;20582;-82
2023/08/21 09:14:00;;;;;;;5.60;2.83;;;24.20;1.00;;;;;;5050240;28;20485;-80
2023/08/21 09:16:27;;;;;;;5.60;2.57;;;24.30;1.00;;;;;;5061075;28;20452;-82
2023/08/21 09:18:56;;;;;;;4.67;2.67;;;24.40;1.00;;;;;;5056578;28;21225;-81
2023/08/21 09:21:25;;;;;;;9.77;3.10;;;24.50;99.90;;;;;;5056169;28;20486;-82
2023/08/21 09:23:59;;;;;;;5.90;2.90;;;24.60;99.90;;;;;;5052435;28;20504;-81
2023/08/21 09:26:31;;;;;;;6.10;3.70;;;24.70;99.90;;;;;;5053917;28;20504;-81
2023/08/21 09:29:00;;;;;;;4.43;3.03;;;24.80;1.00;;;;;;5060784;28;20468;-82
2023/08/21 09:31:32;;;;;;;5.87;3.37;;;24.90;99.90;;;;;;5058700;28;20588;-80
2023/08/21 09:34:00;;;;;;;4.83;2.77;;;24.90;1.00;;;;;;5059899;28;20448;-82
2023/08/21 09:36:29;;;;;;;7.90;2.47;;;25.00;1.00;;;;;;5045418;28;20457;-82
2023/08/21 09:38:56;;;;;;;3.57;2.40;;;25.20;1.00;;;;;;5059453;28;20533;-81
2023/08/21 09:41:23;;;;;;;7.50;3.30;;;25.30;99.90;;;;;;5058959;28;20961;-80
2023/08/21 09:43:51;;;;;;;4.80;2.87;;;25.40;1.00;;;;;;5060770;28;20456;-81
2023/08/21 09:46:18;;;;;;;3.80;2.33;;;25.60;99.90;;;;;;5062195;28;20657;-82
2023/08/21 09:48:46;;;;;;;4.40;3.00;;;25.70;1.00;;;;;;5060961;28;20471;-81
2023/08/21 09:51:13;;;;;;;4.87;2.70;;;25.90;99.90;;;;;;5053508;28;20479;-80
2023/08/21 09:53:41;;;;;;;4.90;2.60;;;26.00;1.00;;;;;;5048405;28;20453;-82
2023/08/21 09:56:09;;;;;;;4.80;1.63;;;26.20;99.90;;;;;;5046864;28;20536;-82
2023/08/21 09:58:36;;;;;;;6.77;2.10;;;26.40;99.90;;;;;;5055979;28;20468;-82
2023/08/21 10:01:11;;;;;;;4.33;2.13;;;26.60;99.90;;;;;;5052000;28;20453;-80
2023/08/21 10:03:40;;;;;;;4.67;2.10;;;26.70;99.90;;;;;;5052898;28;21001;-82
2023/08/21 10:06:07;;;;;;;6.63;2.43;;;26.70;99.90;;;;;;5056369;28;20470;-81
2023/08/21 10:08:37;;;;;;;7.23;2.60;;;26.70;1.00;;;;;;5045534;28;20563;-81
2023/08/21 10:11:08;;;;;;;4.47;2.27;;;26.80;99.90;;;;;;5056323;28;20515;-82
2023/08/21 10:13:36;;;;;;;3.60;1.90;;;26.80;99.90;;;;;;5057290;28;20463;-81
2023/08/21 10:16:03;;;;;;;3.63;1.93;;;26.80;99.90;;;;;;5055474;28;20460;-81
2023/08/21 10:18:35;;;;;;;6.40;2.30;;;26.80;67.60;;;;;;5057733;28;20552;-81
2023/08/21 10:21:15;;;;;;;5.30;2.10;;;26.90;1.00;;;;;;5053619;28;20898;-82
2023/08/21 10:23:43;;;;;;;6.43;1.77;;;27.10;99.90;;;;;;5057265;28;20936;-82
2023/08/21 10:26:11;;;;;;;5.00;2.27;;;27.20;1.00;;;;;;5055292;28;20472;-83
2023/08/21 10:28:51;;;;;;;5.10;2.30;;;27.40;99.90;;;;;;5059257;28;20527;-81
2023/08/21 10:31:33;;;;;;;5.53;2.00;;;27.70;99.90;;;;;;5058596;28;20578;-82
2023/08/21 10:34:02;;;;;;;5.10;2.00;;;27.90;99.90;;;;;;5060162;28;20454;-84
2023/08/21 10:37:05;;;;;;;6.60;2.07;;;27.90;50.20;;;;;;5057804;28;21035;-81
2023/08/21 10:39:33;;;;;;;5.70;1.83;;;28.20;99.90;;;;;;5055117;28;20486;-82
2023/08/21 10:42:04;;;;;;;5.50;1.83;;;28.30;99.90;;;;;;5057837;28;20524;-83
2023/08/21 10:44:38;;;;;;;6.40;2.50;;;28.50;99.90;;;;;;5051678;28;20457;-81
2023/08/21 10:47:16;;;;;;;4.40;1.40;;;28.50;99.90;;;;;;5056873;28;20516;-82
2023/08/21 10:49:44;;;;;;;5.40;2.30;;;28.50;99.90;;;;;;5055059;28;20531;-82
2023/08/21 10:52:12;;;;;;;3.23;1.53;;;28.30;1.00;;;;;;5055428;28;20479;-83
2023/08/21 10:54:49;;;;;;;5.10;2.00;;;28.00;99.90;;;;;;5051196;28;20534;-82
2023/08/21 10:57:18;;;;;;;3.23;1.60;;;27.80;99.90;;;;;;5056797;28;20462;-85
2023/08/21 10:59:56;;;;;;;5.77;2.40;;;27.60;99.90;;;;;;5051895;28;20476;-83
2023/08/21 11:02:24;;;;;;;5.13;2.03;;;27.50;99.90;;;;;;5056579;28;20459;-82
2023/08/21 11:04:51;;;;;;;4.73;2.07;;;27.40;99.90;;;;;;5055317;28;21062;-85
2023/08/21 11:07:18;;;;;;;4.67;1.80;;;27.50;99.90;;;;;;5053944;28;20454;-83
2023/08/21 11:09:45;;;;;;;4.27;2.10;;;27.60;99.90;;;;;;5054858;28;21289;-84
2023/08/21 11:12:15;;;;;;;7.97;1.90;;;27.60;99.90;;;;;;5057534;28;20559;-83
2023/08/21 11:14:44;;;;;;;3.93;1.80;;;27.60;1.00;;;;;;5059412;28;20527;-80
2023/08/21 11:17:11;;;;;;;6.93;2.23;;;27.60;18.10;;;;;;5061207;28;20532;-80
2023/08/21 11:19:39;;;;;;;5.10;1.73;;;27.80;99.90;;;;;;5063033;28;20476;-83
2023/08/21 11:22:06;;;;;;;4.90;1.80;;;28.10;1.00;;;;;;5066500;28;20505;-81
2023/08/21 11:24:41;;;;;;;4.13;2.07;;;28.40;99.90;;;;;;5065520;28;20444;-80
2023/08/21 11:27:11;;;;;;;4.50;2.07;;;28.80;99.90;;;;;;5065772;28;20490;-82
2023/08/21 11:29:39;;;;;;;6.30;1.73;;;29.10;99.90;;;;;;5065129;28;20471;-82
2023/08/21 11:32:11;;;;;;;4.33;1.60;;;29.40;99.90;;;;;;5073765;28;20494;-81
2023/08/21 11:34:38;;;;;;;5.17;1.80;;;29.60;99.90;;;;;;5051504;28;20453;-81
2023/08/21 11:37:05;;;;;;;4.80;1.83;;;29.70;85.50;;;;;;5062098;28;20452;-82
2023/08/21 11:39:46;;;;;;;6.33;2.43;;;29.70;32.90;;;;;;5063184;28;20483;-80
2023/08/21 11:42:14;;;;;;;4.57;1.80;;;29.80;99.90;;;;;;5060546;28;20483;-80
2023/08/21 11:44:44;;;;;;;4.30;1.73;;;29.90;1.00;;;;;;5063402;28;20483;-82
2023/08/21 11:47:13;;;;;;;3.20;1.70;;;29.80;1.00;;;;;;5053593;28;20460;-81
2023/08/21 11:49:42;;;;;;;5.30;1.77;;;29.60;1.00;;;;;;5054333;28;20468;-81
2023/08/21 11:52:09;;;;;;;6.33;2.00;;;29.60;1.00;;;;;;5056129;28;20510;-82
2023/08/21 11:54:37;;;;;;;3.90;1.80;;;29.60;99.90;;;;;;5052985;28;20484;-81
2023/08/21 11:57:09;;;;;;;4.07;1.87;;;29.80;1.00;;;;;;5055249;28;20534;-81
2023/08/21 11:59:36;;;;;;;6.20;1.83;;;29.80;16.50;;;;;;5056178;28;20494;-81
2023/08/21 12:02:11;;;;;;;7.00;2.10;;;30.00;96.40;;;;;;5057186;28;20952;-82
2023/08/21 12:04:38;;;;;;;6.97;2.53;;;29.90;1.00;;;;;;5056762;28;20471;-80
2023/08/21 12:07:05;;;;;;;4.50;2.23;;;30.10;22.30;;;;;;5053809;28;20436;-81
2023/08/21 12:09:32;;;;;;;3.27;2.17;;;30.40;1.00;;;;;;5050238;28;20471;-82
2023/08/21 12:11:59;;;;;;;5.17;2.27;;;30.30;1.00;;;;;;5057122;28;20492;-80
2023/08/21 12:14:32;;;;;;;5.40;2.20;;;29.90;1.00;;;;;;5057332;28;20552;-83
2023/08/21 12:16:58;;;;;;;4.03;2.23;;;29.80;1.00;;;;;;5054283;28;20979;-79
2023/08/21 12:19:27;;;;;;;3.20;1.97;;;29.70;1.00;;;;;;5059643;28;20896;-81
2023/08/21 12:21:54;;;;;;;3.53;2.10;;;29.70;1.00;;;;;;5049773;28;20542;-79
2023/08/21 12:24:21;;;;;;;4.53;2.57;;;29.70;1.00;;;;;;5058435;28;20520;-82
2023/08/21 12:26:47;;;;;;;3.00;2.40;;;29.50;1.00;;;;;;5057907;28;20475;-81
2023/08/21 12:29:14;;;;;;;4.47;2.00;;;29.60;1.00;;;;;;5059446;28;20470;-80
2023/08/21 12:31:41;;;;;;;4.07;1.90;;;29.60;1.00;;;;;;5057832;28;20750;-80
2023/08/21 12:34:08;;;;;;;4.77;2.10;;;29.50;1.00;;;;;;5060742;28;20882;-81
2023/08/21 12:36:37;;;;;;;6.00;2.30;;;29.60;99.90;;;;;;5058061;28;20482;-81
2023/08/21 12:39:05;;;;;;;4.60;2.80;;;30.00;1.00;;;;;;5053987;28;20495;-81
2023/08/21 12:41:34;;;;;;;3.37;1.90;;;30.10;1.00;;;;;;5051668;28;20467;-80
2023/08/21 12:44:02;;;;;;;3.53;2.33;;;30.40;1.00;;;;;;5053208;28;20455;-81
2023/08/21 12:46:30;;;;;;;6.63;2.60;;;30.60;1.00;;;;;;5050500;28;20456;-81
2023/08/21 12:48:57;;;;;;;6.73;2.63;;;30.90;1.00;;;;;;5058640;28;20529;-81
2023/08/21 12:51:24;;;;;;;4.03;2.07;;;31.20;1.00;;;;;;5054620;28;21049;-81
2023/08/21 12:53:52;;;;;;;6.77;2.50;;;31.40;1.00;;;;;;5058905;28;20521;-82